Hlavní strana
METAR-TAF:

METAR-TAF

Letiště :

Pryor Field Regional Airport

Decatur, Alabama, Spojené státy americké

zeměpisná šířka: 34-39-29N, zeměpisná délka: 086-56-36W, výška: 180 m

Aktuální stav počasí

Zpráva byla vytvořena před 15 minutami, v 19:08 UTC
Jihojihozápadní vítr 8 kt
Teplota 16°C
Vlhkost vzduchu 100%
Tlak 1017 hPa
Viditelnost: 8.0 km
Skoro jasno ve výšce 900 ft
Oblačno až skoro zataženo ve výšce 1700 ft
Zataženo ve výšce 4100 ft
déšť, kouřmo

METAR: KDCU 181908Z AUTO 20008KT 5SM RA BR FEW009 BKN017 OVC041 16/16 A3002 RMK AO2 P0004 T01560156

Čas: 13:23 (19:23 UTC)


TAF: chybějící

Stav a předpovědi počasí z více než 4 000 letišť (zprávy METAR a TAF).

Červené a žluté tečky na mapě představují dostupné meteorologické stanice.

Když kurzor umístíte na tečku, zobrazí se název stanice.

Pak kliknutím zobrazíte stav a předpověď počasí.

Chcete-li změnit mapu, kliknutím na zelené tlačítko se znaménkem +mapu přiblížíte, kliknutím na zelené tlačítko se znaménkem – mapu oddálíte a kliknutím na zelené šipky přejdete na sousední mapy.


METAR-TAF: